Maidstone, United Kingdom
Current Conditions -  °F | °C
As of 8:20 PM on Tuesday 21 Oct 2014 (Local Time) from EGKB Reporting Station
Scattered Clouds Scattered Clouds  
Wind Chill: 40°   Ceiling: Unl
Heat Index: 46°   Visibility: 6mi
Dew Point: 36°   Wind: 15mph
Humidity: 66%   Direction: 290°WNW
Pressure: 30"   Gusts: NA
Location:  51.27°N, 0.52°E
Report Text: EGKB 211920Z 29013KT 260V320 9999 SCT040 08/02 Q1016
Loading
Personal Weather Stations






























Interactive Weather Map
Tropical Storm Tracking
New forecast layout! Learn more

10-Day Weather Forecast

Advertisements
Track Severe Weather on mobile